Rhinelander Oneida County Airport
KRHI : rendu visible

Aérodrome :











RETROUVEZ-NOUS SUR...

 
LOGIN :

S'inscrire | Disclaimer

   EN    FR    IT 

 









Légende :    VFR   VFR Marginal   IFR   IFR Intensif   IFR Très Intensif
Visi : 
Plafond : 
>= 8 km
>= 3000ft
5 à 8 km
1000 à 3000 ft
1500m à 5 km
500 à 1000 ft
800 à 1500m
200 à 500 ft
< 800m
< 200 ft
Symboles :   Orages  Brouillard  Fortes neiges  Fortes précipitations  Vent > 20 kt






- Altitude de l'aérodrome : 1624 ft
- Code IATA : RHI


KRHI - Rhinelander Oneida County

DERNIER METAR :
  • 211553Z AUTO 34008KT 4SM RA BR OVC005 02/01 A2961 RMK AO2 SLP041 P0007 T00220011

METARs EXPIRÉS :
  • 211528Z AUTO VRB04KT 4SM -RA BR BKN003 OVC011 03/02 A2961 RMK AO2 P0003 T00280017
  • 211453Z AUTO 34004KT 2 1/2SM -RA BR BKN003 OVC010 03/02 A2960 RMK AO2 SLP038 P0002 60010 T00280022 53001
  • 211418Z AUTO 00000KT 1 3/4SM -RA BR OVC005 03/02 A2960 RMK AO2 P0001 T00280022
  • 211409Z AUTO 00000KT 2SM -RA BR OVC004 03/02 A2960 RMK AO2 P0001 T00280022
  • 211353Z AUTO 36004KT 1 1/2SM -RA BR OVC004 03/02 A2960 RMK AO2 CIG 002V006 SLP036 P0004 T00280022
  • 211312Z AUTO 01004KT 5SM -RA BR OVC004 03/02 A2960 RMK AO2 P0001 T00330022

TAF KRHI
Valide du 21 à 16h jusqu'au 22 à 12h UTC


211535Z 2116/2212 36007KT 4SM -RA BR OVC005
TEMPO 2116/2118 3/4SM -RA BR OVC003
FM211800 35010G21KT 3SM RASN BR OVC005
FM211900 33011G21KT 2SM -SHSN BKN006
FM212300 33009G16KT P6SM -FZDZ BKN009
FM220400 32008KT P6SM BKN017



MET'MAP, la Météo Aéronautique d'un coup d'oeil ! - Copyright ORBIFLY Décembre 2007 - Disclaimer

ORBIFLY MET'MAP TEAM :

Programmation & Développement : Alexandra Zaïnal
Conception & Développement : Baudouin d'Aumeries
Co-Programmation & Développement : Marc-Olivier Méhu
Soutien technique & logistique : Manuel Goepfert

Contact : metmap@orbifly.com




SOURCES & CREDITS :

   NOAA       Earth
Advisory